sensor_id;sensor_type;location;lat;lon;timestamp;pressure;altitude;pressure_sealevel;temperature;humidity
32131;BME280;18639;50.716;7.086;2023-02-16T00:01:48;101359.59;;;4.66;100.00
32131;BME280;18639;50.716;7.086;2023-02-16T00:04:20;101355.34;;;4.65;100.00
32131;BME280;18639;50.716;7.086;2023-02-16T00:06:46;101350.38;;;4.59;100.00
32131;BME280;18639;50.716;7.086;2023-02-16T00:09:11;101309.03;;;4.41;100.00
32131;BME280;18639;50.716;7.086;2023-02-16T00:11:36;101342.78;;;4.56;100.00
32131;BME280;18639;50.716;7.086;2023-02-16T00:14:21;101341.19;;;4.52;100.00
32131;BME280;18639;50.716;7.086;2023-02-16T00:16:48;101326.84;;;4.45;100.00
32131;BME280;18639;50.716;7.086;2023-02-16T00:19:26;101341.91;;;4.57;100.00
32131;BME280;18639;50.716;7.086;2023-02-16T00:21:54;101326.78;;;4.48;100.00
32131;BME280;18639;50.716;7.086;2023-02-16T00:24:21;101341.97;;;4.54;100.00
32131;BME280;18639;50.716;7.086;2023-02-16T00:26:47;101336.84;;;4.54;100.00
32131;BME280;18639;50.716;7.086;2023-02-16T00:29:33;101333.47;;;4.54;100.00
32131;BME280;18639;50.716;7.086;2023-02-16T00:32:00;101329.97;;;4.56;100.00
32131;BME280;18639;50.716;7.086;2023-02-16T00:34:31;101334.97;;;4.61;100.00
32131;BME280;18639;50.716;7.086;2023-02-16T00:36:58;101332.56;;;4.55;100.00
32131;BME280;18639;50.716;7.086;2023-02-16T00:39:24;101335.00;;;4.59;100.00
32131;BME280;18639;50.716;7.086;2023-02-16T00:41:54;101305.47;;;4.48;100.00
32131;BME280;18639;50.716;7.086;2023-02-16T00:44:56;101324.88;;;4.56;100.00
32131;BME280;18639;50.716;7.086;2023-02-16T00:49:58;101320.63;;;4.55;100.00
32131;BME280;18639;50.716;7.086;2023-02-16T00:54:56;101336.91;;;4.53;100.00
32131;BME280;18639;50.716;7.086;2023-02-16T00:57:22;101325.13;;;4.46;100.00
32131;BME280;18639;50.716;7.086;2023-02-16T00:59:54;101331.81;;;4.51;100.00
32131;BME280;18639;50.716;7.086;2023-02-16T01:02:22;101324.28;;;4.45;100.00
32131;BME280;18639;50.716;7.086;2023-02-16T01:04:48;101332.75;;;4.47;100.00
32131;BME280;18639;50.716;7.086;2023-02-16T01:07:14;101322.69;;;4.40;100.00
32131;BME280;18639;50.716;7.086;2023-02-16T01:09:59;101321.06;;;4.37;100.00
32131;BME280;18639;50.716;7.086;2023-02-16T01:12:43;101322.91;;;4.31;100.00
32131;BME280;18639;50.716;7.086;2023-02-16T01:15:12;101320.47;;;4.26;100.00
32131;BME280;18639;50.716;7.086;2023-02-16T01:17:38;101297.97;;;4.03;100.00
32131;BME280;18639;50.716;7.086;2023-02-16T01:20:19;101319.75;;;4.19;100.00
32131;BME280;18639;50.716;7.086;2023-02-16T01:22:44;101302.94;;;4.09;100.00
32131;BME280;18639;50.716;7.086;2023-02-16T01:25:10;101309.56;;;4.18;100.00
32131;BME280;18639;50.716;7.086;2023-02-16T01:27:36;101295.38;;;4.05;100.00
32131;BME280;18639;50.716;7.086;2023-02-16T01:30:09;101302.63;;;4.23;100.00
32131;BME280;18639;50.716;7.086;2023-02-16T01:32:36;101299.31;;;4.18;100.00
32131;BME280;18639;50.716;7.086;2023-02-16T01:35:01;101302.81;;;4.15;100.00
32131;BME280;18639;50.716;7.086;2023-02-16T01:37:26;101287.34;;;4.20;100.00
32131;BME280;18639;50.716;7.086;2023-02-16T01:39:51;101279.75;;;4.17;100.00
32131;BME280;18639;50.716;7.086;2023-02-16T01:44:47;101277.03;;;4.23;100.00
32131;BME280;18639;50.716;7.086;2023-02-16T01:49:42;101294.63;;;4.37;100.00
32131;BME280;18639;50.716;7.086;2023-02-16T01:52:27;101295.47;;;4.37;100.00
32131;BME280;18639;50.716;7.086;2023-02-16T01:55:03;101291.28;;;4.33;100.00
32131;BME280;18639;50.716;7.086;2023-02-16T01:57:37;101290.41;;;4.36;100.00
32131;BME280;18639;50.716;7.086;2023-02-16T02:00:13;101289.63;;;4.32;100.00
32131;BME280;18639;50.716;7.086;2023-02-16T02:02:49;101282.84;;;4.31;100.00
32131;BME280;18639;50.716;7.086;2023-02-16T02:05:28;101288.94;;;4.26;100.00
32131;BME280;18639;50.716;7.086;2023-02-16T02:11:08;101290.69;;;4.22;100.00
32131;BME280;18639;50.716;7.086;2023-02-16T02:14:03;101293.25;;;4.22;100.00
32131;BME280;18639;50.716;7.086;2023-02-16T02:16:30;101288.31;;;4.16;100.00
32131;BME280;18639;50.716;7.086;2023-02-16T02:18:56;101286.03;;;4.04;100.00
32131;BME280;18639;50.716;7.086;2023-02-16T02:21:47;101292.84;;;4.03;100.00
32131;BME280;18639;50.716;7.086;2023-02-16T02:27:37;101283.00;;;3.87;100.00
32131;BME280;18639;50.716;7.086;2023-02-16T02:35:48;101287.69;;;3.66;100.00
32131;BME280;18639;50.716;7.086;2023-02-16T02:38:26;101286.09;;;3.62;100.00
32131;BME280;18639;50.716;7.086;2023-02-16T02:41:11;101281.16;;;3.53;100.00
32131;BME280;18639;50.716;7.086;2023-02-16T02:43:51;101263.53;;;3.41;100.00
32131;BME280;18639;50.716;7.086;2023-02-16T02:46:26;101270.28;;;3.44;100.00
32131;BME280;18639;50.716;7.086;2023-02-16T02:48:53;101275.41;;;3.42;100.00
32131;BME280;18639;50.716;7.086;2023-02-16T02:51:18;101270.50;;;3.33;100.00
32131;BME280;18639;50.716;7.086;2023-02-16T02:53:56;101277.28;;;3.34;100.00
32131;BME280;18639;50.716;7.086;2023-02-16T02:56:45;101280.69;;;3.34;100.00
32131;BME280;18639;50.716;7.086;2023-02-16T02:59:31;101286.66;;;3.35;100.00
32131;BME280;18639;50.716;7.086;2023-02-16T03:02:16;101275.63;;;3.31;100.00
32131;BME280;18639;50.716;7.086;2023-02-16T03:04:43;101276.53;;;3.29;100.00
32131;BME280;18639;50.716;7.086;2023-02-16T03:07:11;101256.41;;;3.14;100.00
32131;BME280;18639;50.716;7.086;2023-02-16T03:09:37;101247.25;;;3.04;100.00
32131;BME280;18639;50.716;7.086;2023-02-16T03:12:02;101269.00;;;3.23;100.00
32131;BME280;18639;50.716;7.086;2023-02-16T03:14:58;101275.03;;;3.19;100.00
32131;BME280;18639;50.716;7.086;2023-02-16T03:17:32;101257.34;;;3.10;100.00
32131;BME280;18639;50.716;7.086;2023-02-16T03:20:17;101259.94;;;3.07;100.00
32131;BME280;18639;50.716;7.086;2023-02-16T03:23:04;101250.66;;;3.04;100.00
32131;BME280;18639;50.716;7.086;2023-02-16T03:25:50;101257.38;;;3.08;100.00
32131;BME280;18639;50.716;7.086;2023-02-16T03:28:36;101252.28;;;3.08;100.00
32131;BME280;18639;50.716;7.086;2023-02-16T03:31:28;101251.44;;;3.08;100.00
32131;BME280;18639;50.716;7.086;2023-02-16T03:33:55;101245.50;;;3.06;100.00
32131;BME280;18639;50.716;7.086;2023-02-16T03:36:25;101243.59;;;3.15;100.00
32131;BME280;18639;50.716;7.086;2023-02-16T03:38:53;101237.59;;;3.18;100.00
32131;BME280;18639;50.716;7.086;2023-02-16T03:41:31;101234.97;;;3.22;100.00
32131;BME280;18639;50.716;7.086;2023-02-16T03:43:57;101248.34;;;3.33;100.00
32131;BME280;18639;50.716;7.086;2023-02-16T03:46:22;101242.41;;;3.31;100.00
32131;BME280;18639;50.716;7.086;2023-02-16T03:48:48;101241.50;;;3.35;100.00
32131;BME280;18639;50.716;7.086;2023-02-16T03:51:13;101239.63;;;3.44;100.00
32131;BME280;18639;50.716;7.086;2023-02-16T03:53:39;101243.66;;;3.54;100.00
32131;BME280;18639;50.716;7.086;2023-02-16T03:56:04;101237.81;;;3.49;100.00
32131;BME280;18639;50.716;7.086;2023-02-16T03:58:32;101239.41;;;3.53;100.00
32131;BME280;18639;50.716;7.086;2023-02-16T04:00:57;101242.75;;;3.58;100.00
32131;BME280;18639;50.716;7.086;2023-02-16T04:03:23;101259.47;;;3.71;100.00
32131;BME280;18639;50.716;7.086;2023-02-16T04:05:49;101254.47;;;3.66;100.00
32131;BME280;18639;50.716;7.086;2023-02-16T04:08:14;101260.22;;;3.76;100.00
32131;BME280;18639;50.716;7.086;2023-02-16T04:10:40;101246.00;;;3.64;100.00
32131;BME280;18639;50.716;7.086;2023-02-16T04:13:06;101260.25;;;3.74;100.00
32131;BME280;18639;50.716;7.086;2023-02-16T04:15:32;101258.53;;;3.75;100.00
32131;BME280;18639;50.716;7.086;2023-02-16T04:17:58;101258.66;;;3.69;100.00
32131;BME280;18639;50.716;7.086;2023-02-16T04:20:27;101253.66;;;3.64;100.00
32131;BME280;18639;50.716;7.086;2023-02-16T04:22:53;101247.94;;;3.53;100.00
32131;BME280;18639;50.716;7.086;2023-02-16T04:25:19;101184.94;;;3.14;100.00
32131;BME280;18639;50.716;7.086;2023-02-16T04:27:45;101246.94;;;3.60;100.00
32131;BME280;18639;50.716;7.086;2023-02-16T04:30:26;101241.16;;;3.52;100.00
32131;BME280;18639;50.716;7.086;2023-02-16T04:32:52;101239.41;;;3.53;100.00
32131;BME280;18639;50.716;7.086;2023-02-16T04:35:17;101244.47;;;3.56;100.00
32131;BME280;18639;50.716;7.086;2023-02-16T04:37:43;101253.84;;;3.57;100.00
32131;BME280;18639;50.716;7.086;2023-02-16T04:40:10;101245.47;;;3.50;100.00
32131;BME280;18639;50.716;7.086;2023-02-16T04:42:42;101242.06;;;3.50;100.00
32131;BME280;18639;50.716;7.086;2023-02-16T04:45:09;101258.03;;;3.59;100.00
32131;BME280;18639;50.716;7.086;2023-02-16T04:47:34;101254.75;;;3.53;100.00
32131;BME280;18639;50.716;7.086;2023-02-16T04:49:59;101247.19;;;3.48;100.00
32131;BME280;18639;50.716;7.086;2023-02-16T04:52:26;101230.34;;;3.41;100.00
32131;BME280;18639;50.716;7.086;2023-02-16T04:54:51;101236.31;;;3.38;100.00
32131;BME280;18639;50.716;7.086;2023-02-16T04:57:16;101224.50;;;3.34;100.00
32131;BME280;18639;50.716;7.086;2023-02-16T04:59:43;101236.28;;;3.42;100.00
32131;BME280;18639;50.716;7.086;2023-02-16T05:02:08;101233.78;;;3.37;100.00
32131;BME280;18639;50.716;7.086;2023-02-16T05:04:34;101231.31;;;3.34;100.00
32131;BME280;18639;50.716;7.086;2023-02-16T05:06:59;101242.25;;;3.41;100.00
32131;BME280;18639;50.716;7.086;2023-02-16T05:09:24;101238.25;;;3.29;100.00
32131;BME280;18639;50.716;7.086;2023-02-16T05:11:50;101241.56;;;3.32;100.00
32131;BME280;18639;50.716;7.086;2023-02-16T05:14:34;101229.81;;;3.25;100.00
32131;BME280;18639;50.716;7.086;2023-02-16T05:19:39;101232.59;;;3.13;100.00
32131;BME280;18639;50.716;7.086;2023-02-16T05:22:05;101238.63;;;3.09;100.00
32131;BME280;18639;50.716;7.086;2023-02-16T05:24:30;101242.06;;;3.07;100.00
32131;BME280;18639;50.716;7.086;2023-02-16T05:26:55;101245.47;;;3.07;100.00
32131;BME280;18639;50.716;7.086;2023-02-16T05:29:21;101234.66;;;2.94;100.00
32131;BME280;18639;50.716;7.086;2023-02-16T05:31:46;101254.13;;;3.00;100.00
32131;BME280;18639;50.716;7.086;2023-02-16T05:34:12;101240.75;;;2.87;100.00
32131;BME280;18639;50.716;7.086;2023-02-16T05:36:37;101258.56;;;2.90;100.00
32131;BME280;18639;50.716;7.086;2023-02-16T05:39:03;101251.81;;;2.88;100.00
32131;BME280;18639;50.716;7.086;2023-02-16T05:41:36;101248.44;;;2.84;100.00
32131;BME280;18639;50.716;7.086;2023-02-16T05:44:03;101256.19;;;2.80;100.00
32131;BME280;18639;50.716;7.086;2023-02-16T05:46:31;101242.69;;;2.73;100.00
32131;BME280;18639;50.716;7.086;2023-02-16T05:48:57;101252.91;;;2.73;100.00
32131;BME280;18639;50.716;7.086;2023-02-16T05:51:22;101249.56;;;2.71;100.00
32131;BME280;18639;50.716;7.086;2023-02-16T05:53:48;101240.25;;;2.67;100.00
32131;BME280;18639;50.716;7.086;2023-02-16T05:56:13;101228.50;;;2.60;100.00
32131;BME280;18639;50.716;7.086;2023-02-16T05:58:38;101221.03;;;2.48;100.00
32131;BME280;18639;50.716;7.086;2023-02-16T06:01:04;101254.69;;;2.70;100.00
32131;BME280;18639;50.716;7.086;2023-02-16T06:03:30;101247.16;;;2.62;100.00
32131;BME280;18639;50.716;7.086;2023-02-16T06:05:57;101253.84;;;2.69;100.00
32131;BME280;18639;50.716;7.086;2023-02-16T06:08:23;101257.16;;;2.74;100.00
32131;BME280;18639;50.716;7.086;2023-02-16T06:10:50;101240.97;;;2.75;100.00
32131;BME280;18639;50.716;7.086;2023-02-16T06:13:16;101252.66;;;2.87;100.00
32131;BME280;18639;50.716;7.086;2023-02-16T06:15:41;101218.94;;;2.71;100.00
32131;BME280;18639;50.716;7.086;2023-02-16T06:18:08;101255.91;;;2.95;100.00
32131;BME280;18639;50.716;7.086;2023-02-16T06:20:35;101235.75;;;2.83;100.00
32131;BME280;18639;50.716;7.086;2023-02-16T06:23:00;101236.50;;;2.86;100.00
32131;BME280;18639;50.716;7.086;2023-02-16T06:25:26;101257.56;;;2.97;100.00
32131;BME280;18639;50.716;7.086;2023-02-16T06:27:51;101255.00;;;2.99;100.00
32131;BME280;18639;50.716;7.086;2023-02-16T06:30:17;101237.19;;;2.94;100.00
32131;BME280;18639;50.716;7.086;2023-02-16T06:32:43;101253.00;;;3.15;100.00
32131;BME280;18639;50.716;7.086;2023-02-16T06:35:08;101206.53;;;2.97;100.00
32131;BME280;18639;50.716;7.086;2023-02-16T06:37:34;101248.47;;;3.27;100.00
32131;BME280;18639;50.716;7.086;2023-02-16T06:39:59;101251.59;;;3.42;100.00
32131;BME280;18639;50.716;7.086;2023-02-16T06:42:24;101250.63;;;3.47;100.00
32131;BME280;18639;50.716;7.086;2023-02-16T06:44:49;101247.13;;;3.51;100.00
32131;BME280;18639;50.716;7.086;2023-02-16T06:47:15;101248.69;;;3.58;100.00
32131;BME280;18639;50.716;7.086;2023-02-16T06:49:40;101260.41;;;3.68;100.00
32131;BME280;18639;50.716;7.086;2023-02-16T06:52:05;101239.28;;;3.60;100.00
32131;BME280;18639;50.716;7.086;2023-02-16T06:54:30;101262.75;;;3.77;100.00
32131;BME280;18639;50.716;7.086;2023-02-16T06:56:56;101259.13;;;3.88;100.00
32131;BME280;18639;50.716;7.086;2023-02-16T06:59:21;101252.19;;;3.93;100.00
32131;BME280;18639;50.716;7.086;2023-02-16T07:01:46;101245.13;;;4.04;100.00
32131;BME280;18639;50.716;7.086;2023-02-16T07:04:12;101218.66;;;4.05;100.00
32131;BME280;18639;50.716;7.086;2023-02-16T07:06:37;101265.56;;;4.39;100.00
32131;BME280;18639;50.716;7.086;2023-02-16T07:09:03;101258.56;;;4.47;100.00
32131;BME280;18639;50.716;7.086;2023-02-16T07:11:29;101267.56;;;4.62;100.00
32131;BME280;18639;50.716;7.086;2023-02-16T07:13:54;101275.56;;;4.82;100.00
32131;BME280;18639;50.716;7.086;2023-02-16T07:16:19;101270.28;;;4.88;100.00
32131;BME280;18639;50.716;7.086;2023-02-16T07:18:45;101272.50;;;5.02;100.00
32131;BME280;18639;50.716;7.086;2023-02-16T07:21:11;101254.75;;;4.96;100.00
32131;BME280;18639;50.716;7.086;2023-02-16T07:23:36;101262.91;;;5.08;100.00
32131;BME280;18639;50.716;7.086;2023-02-16T07:26:02;101276.97;;;5.25;100.00
32131;BME280;18639;50.716;7.086;2023-02-16T07:28:31;101243.19;;;5.12;100.00
32131;BME280;18639;50.716;7.086;2023-02-16T07:31:14;101242.19;;;5.18;100.00
32131;BME280;18639;50.716;7.086;2023-02-16T07:33:40;101254.59;;;5.31;100.00
32131;BME280;18639;50.716;7.086;2023-02-16T07:36:06;101271.06;;;5.54;100.00
32131;BME280;18639;50.716;7.086;2023-02-16T07:38:32;101284.47;;;5.62;100.00
32131;BME280;18639;50.716;7.086;2023-02-16T07:40:57;101284.28;;;5.68;100.00
32131;BME280;18639;50.716;7.086;2023-02-16T07:43:23;101262.91;;;5.69;100.00
32131;BME280;18639;50.716;7.086;2023-02-16T07:45:49;101249.94;;;5.73;100.00
32131;BME280;18639;50.716;7.086;2023-02-16T07:48:15;101264.75;;;5.93;100.00
32131;BME280;18639;50.716;7.086;2023-02-16T07:50:41;101258.81;;;5.93;100.00
32131;BME280;18639;50.716;7.086;2023-02-16T07:53:06;101271.41;;;5.99;100.00
32131;BME280;18639;50.716;7.086;2023-02-16T07:55:32;101253.59;;;5.94;100.00
32131;BME280;18639;50.716;7.086;2023-02-16T07:57:58;101264.69;;;5.96;100.00
32131;BME280;18639;50.716;7.086;2023-02-16T08:00:24;101273.91;;;6.02;100.00
32131;BME280;18639;50.716;7.086;2023-02-16T08:02:50;101262.94;;;5.97;100.00
32131;BME280;18639;50.716;7.086;2023-02-16T08:05:18;101263.00;;;5.95;100.00
32131;BME280;18639;50.716;7.086;2023-02-16T08:07:44;101251.44;;;5.80;100.00
32131;BME280;18639;50.716;7.086;2023-02-16T08:10:09;101262.28;;;5.90;100.00
32131;BME280;18639;50.716;7.086;2023-02-16T08:12:36;101252.13;;;5.87;100.00
32131;BME280;18639;50.716;7.086;2023-02-16T08:15:01;101179.16;;;5.40;100.00
32131;BME280;18639;50.716;7.086;2023-02-16T08:17:29;101265.41;;;6.00;100.00
32131;BME280;18639;50.716;7.086;2023-02-16T08:19:54;101269.50;;;6.05;100.00
32131;BME280;18639;50.716;7.086;2023-02-16T08:22:19;101271.06;;;6.11;100.00
32131;BME280;18639;50.716;7.086;2023-02-16T08:24:45;101269.19;;;6.16;100.00
32131;BME280;18639;50.716;7.086;2023-02-16T08:27:10;101264.81;;;6.19;100.00
32131;BME280;18639;50.716;7.086;2023-02-16T08:29:36;101226.00;;;6.02;100.00
32131;BME280;18639;50.716;7.086;2023-02-16T08:32:01;101254.97;;;6.32;100.00
32131;BME280;18639;50.716;7.086;2023-02-16T08:34:32;101268.13;;;6.48;100.00
32131;BME280;18639;50.716;7.086;2023-02-16T08:36:59;101235.38;;;6.56;100.00
32131;BME280;18639;50.716;7.086;2023-02-16T08:39:27;101233.16;;;6.70;100.00
32131;BME280;18639;50.716;7.086;2023-02-16T08:41:54;101259.13;;;6.87;100.00
32131;BME280;18639;50.716;7.086;2023-02-16T08:44:23;101259.75;;;6.94;100.00
32131;BME280;18639;50.716;7.086;2023-02-16T08:46:50;101267.38;;;6.95;100.00
32131;BME280;18639;50.716;7.086;2023-02-16T08:49:18;101266.06;;;7.08;100.00
32131;BME280;18639;50.716;7.086;2023-02-16T08:51:47;101254.78;;;7.12;100.00
32131;BME280;18639;50.716;7.086;2023-02-16T08:54:16;101224.38;;;7.00;100.00
32131;BME280;18639;50.716;7.086;2023-02-16T08:56:41;101236.63;;;7.17;100.00
32131;BME280;18639;50.716;7.086;2023-02-16T08:59:11;101261.63;;;7.37;100.00
32131;BME280;18639;50.716;7.086;2023-02-16T09:01:36;101265.00;;;7.37;100.00
32131;BME280;18639;50.716;7.086;2023-02-16T09:04:01;101252.06;;;7.40;100.00
32131;BME280;18639;50.716;7.086;2023-02-16T09:06:27;101247.91;;;7.81;100.00
32131;BME280;18639;50.716;7.086;2023-02-16T09:08:54;101258.19;;;8.25;100.00
32131;BME280;18639;50.716;7.086;2023-02-16T09:11:20;101253.88;;;8.47;100.00
32131;BME280;18639;50.716;7.086;2023-02-16T09:13:49;101245.63;;;8.39;100.00
32131;BME280;18639;50.716;7.086;2023-02-16T09:16:20;101210.31;;;8.21;100.00
32131;BME280;18639;50.716;7.086;2023-02-16T09:18:47;101260.00;;;8.44;100.00
32131;BME280;18639;50.716;7.086;2023-02-16T09:21:18;101268.56;;;8.45;100.00
32131;BME280;18639;50.716;7.086;2023-02-16T09:23:46;101230.84;;;8.22;99.97
32131;BME280;18639;50.716;7.086;2023-02-16T09:26:16;101264.19;;;8.47;100.00
32131;BME280;18639;50.716;7.086;2023-02-16T09:28:52;101260.94;;;8.64;100.00
32131;BME280;18639;50.716;7.086;2023-02-16T09:34:20;101200.84;;;8.43;99.24
32131;BME280;18639;50.716;7.086;2023-02-16T09:36:47;101231.84;;;8.40;98.73
32131;BME280;18639;50.716;7.086;2023-02-16T09:39:13;101231.50;;;8.49;99.40
32131;BME280;18639;50.716;7.086;2023-02-16T09:44:40;101245.03;;;8.93;98.51
32131;BME280;18639;50.716;7.086;2023-02-16T09:47:29;101264.94;;;9.49;96.94
32131;BME280;18639;50.716;7.086;2023-02-16T09:49:58;101268.56;;;9.99;95.04
32131;BME280;18639;50.716;7.086;2023-02-16T09:52:42;101223.59;;;10.22;90.35
32131;BME280;18639;50.716;7.086;2023-02-16T09:55:16;101252.28;;;11.02;88.32
32131;BME280;18639;50.716;7.086;2023-02-16T09:57:49;101259.25;;;11.33;84.47
32131;BME280;18639;50.716;7.086;2023-02-16T10:00:46;101266.72;;;11.55;82.61
32131;BME280;18639;50.716;7.086;2023-02-16T10:08:57;101260.00;;;12.29;74.34
32131;BME280;18639;50.716;7.086;2023-02-16T10:11:26;101263.97;;;12.50;72.50
32131;BME280;18639;50.716;7.086;2023-02-16T10:14:33;101273.38;;;12.67;70.30
32131;BME280;18639;50.716;7.086;2023-02-16T10:17:14;101273.34;;;12.97;72.25
32131;BME280;18639;50.716;7.086;2023-02-16T10:19:53;101270.53;;;13.00;71.78
32131;BME280;18639;50.716;7.086;2023-02-16T10:22:27;101270.66;;;12.24;70.80
32131;BME280;18639;50.716;7.086;2023-02-16T10:24:59;101264.41;;;11.97;73.92
32131;BME280;18639;50.716;7.086;2023-02-16T10:27:34;101279.63;;;12.03;75.19
32131;BME280;18639;50.716;7.086;2023-02-16T10:30:19;101277.47;;;11.96;76.97
32131;BME280;18639;50.716;7.086;2023-02-16T10:32:56;101276.78;;;11.92;77.63
32131;BME280;18639;50.716;7.086;2023-02-16T10:38:24;101280.28;;;11.75;79.39
32131;BME280;18639;50.716;7.086;2023-02-16T10:41:23;101275.78;;;11.63;81.03
32131;BME280;18639;50.716;7.086;2023-02-16T10:44:02;101262.63;;;11.35;81.45
32131;BME280;18639;50.716;7.086;2023-02-16T10:46:37;101261.97;;;11.31;82.95
32131;BME280;18639;50.716;7.086;2023-02-16T10:49:12;101275.94;;;11.27;82.97
32131;BME280;18639;50.716;7.086;2023-02-16T10:51:38;101272.03;;;11.20;84.10
32131;BME280;18639;50.716;7.086;2023-02-16T10:54:29;101267.41;;;11.10;84.13
32131;BME280;18639;50.716;7.086;2023-02-16T10:56:59;101276.28;;;11.21;84.77
32131;BME280;18639;50.716;7.086;2023-02-16T10:59:36;101277.53;;;11.14;85.27
32131;BME280;18639;50.716;7.086;2023-02-16T11:02:14;101264.81;;;11.10;88.27
32131;BME280;18639;50.716;7.086;2023-02-16T11:04:42;101260.50;;;11.10;87.36
32131;BME280;18639;50.716;7.086;2023-02-16T11:07:13;101264.06;;;11.08;86.64
32131;BME280;18639;50.716;7.086;2023-02-16T11:09:41;101256.56;;;11.19;88.30
32131;BME280;18639;50.716;7.086;2023-02-16T11:12:32;101260.09;;;11.33;91.32
32131;BME280;18639;50.716;7.086;2023-02-16T11:17:58;101256.88;;;11.46;91.58
32131;BME280;18639;50.716;7.086;2023-02-16T11:34:00;101216.13;;;11.65;86.29
32131;BME280;18639;50.716;7.086;2023-02-16T11:36:42;101236.50;;;11.71;88.33
32131;BME280;18639;50.716;7.086;2023-02-16T11:39:21;101217.13;;;11.62;87.64
32131;BME280;18639;50.716;7.086;2023-02-16T11:42:08;101235.00;;;11.67;88.19
32131;BME280;18639;50.716;7.086;2023-02-16T11:44:37;101223.47;;;11.57;89.22
32131;BME280;18639;50.716;7.086;2023-02-16T11:49:48;101221.66;;;11.59;88.97
32131;BME280;18639;50.716;7.086;2023-02-16T11:54:53;101219.66;;;11.64;88.34
32131;BME280;18639;50.716;7.086;2023-02-16T11:57:28;101214.09;;;11.70;87.81
32131;BME280;18639;50.716;7.086;2023-02-16T11:59:55;101195.41;;;11.65;88.49
32131;BME280;18639;50.716;7.086;2023-02-16T12:02:35;101205.31;;;11.74;86.56
32131;BME280;18639;50.716;7.086;2023-02-16T12:19:21;101170.19;;;11.68;90.61
32131;BME280;18639;50.716;7.086;2023-02-16T12:21:43;101168.72;;;11.64;91.60
32131;BME280;18639;50.716;7.086;2023-02-16T12:24:26;101168.94;;;11.60;92.87
32131;BME280;18639;50.716;7.086;2023-02-16T12:26:59;101171.53;;;11.60;93.86
32131;BME280;18639;50.716;7.086;2023-02-16T12:29:43;101156.78;;;11.46;93.55
32131;BME280;18639;50.716;7.086;2023-02-16T12:32:23;101181.31;;;11.55;94.04
32131;BME280;18639;50.716;7.086;2023-02-16T12:43:38;101173.97;;;11.63;92.88
32131;BME280;18639;50.716;7.086;2023-02-16T12:51:27;101174.56;;;11.52;95.20
32131;BME280;18639;50.716;7.086;2023-02-16T12:54:16;101182.25;;;11.54;96.00
32131;BME280;18639;50.716;7.086;2023-02-16T12:57:12;101175.66;;;11.48;96.17
32131;BME280;18639;50.716;7.086;2023-02-16T13:02:37;101164.53;;;11.46;95.98
32131;BME280;18639;50.716;7.086;2023-02-16T13:05:13;101172.31;;;11.46;96.04
32131;BME280;18639;50.716;7.086;2023-02-16T13:07:44;101164.47;;;11.48;96.42
32131;BME280;18639;50.716;7.086;2023-02-16T13:10:53;101157.88;;;11.42;96.63
32131;BME280;18639;50.716;7.086;2023-02-16T13:13:26;101156.28;;;11.39;96.93
32131;BME280;18639;50.716;7.086;2023-02-16T13:18:25;101153.88;;;11.36;96.57
32131;BME280;18639;50.716;7.086;2023-02-16T13:20:59;101154.00;;;11.33;96.76
32131;BME280;18639;50.716;7.086;2023-02-16T13:26:10;101142.41;;;11.40;97.90
32131;BME280;18639;50.716;7.086;2023-02-16T13:36:48;101116.50;;;11.56;100.00
32131;BME280;18639;50.716;7.086;2023-02-16T13:44:36;101113.28;;;11.53;100.00
32131;BME280;18639;50.716;7.086;2023-02-16T13:47:03;101111.75;;;11.49;100.00
32131;BME280;18639;50.716;7.086;2023-02-16T13:51:58;101116.13;;;11.48;100.00
32131;BME280;18639;50.716;7.086;2023-02-16T13:54:30;101113.63;;;11.47;100.00
32131;BME280;18639;50.716;7.086;2023-02-16T13:56:57;101091.75;;;11.36;100.00
32131;BME280;18639;50.716;7.086;2023-02-16T14:01:49;101112.44;;;11.52;100.00
32131;BME280;18639;50.716;7.086;2023-02-16T14:06:51;101096.22;;;11.64;100.00
32131;BME280;18639;50.716;7.086;2023-02-16T14:12:15;101106.06;;;11.73;100.00
32131;BME280;18639;50.716;7.086;2023-02-16T14:14:45;101082.06;;;11.70;100.00
32131;BME280;18639;50.716;7.086;2023-02-16T14:19:52;101072.16;;;11.78;100.00
32131;BME280;18639;50.716;7.086;2023-02-16T14:22:34;101074.56;;;11.81;100.00
32131;BME280;18639;50.716;7.086;2023-02-16T14:27:59;101061.53;;;11.67;98.90
32131;BME280;18639;50.716;7.086;2023-02-16T14:30:53;101069.00;;;11.73;98.64
32131;BME280;18639;50.716;7.086;2023-02-16T14:33:37;101059.50;;;11.58;98.76
32131;BME280;18639;50.716;7.086;2023-02-16T14:36:15;101066.66;;;11.68;98.87
32131;BME280;18639;50.716;7.086;2023-02-16T14:38:42;101066.16;;;11.62;98.49
32131;BME280;18639;50.716;7.086;2023-02-16T14:43:48;101052.44;;;11.60;99.03
32131;BME280;18639;50.716;7.086;2023-02-16T14:46:28;101049.50;;;11.66;97.39
32131;BME280;18639;50.716;7.086;2023-02-16T14:58:43;101041.94;;;11.63;99.99
32131;BME280;18639;50.716;7.086;2023-02-16T15:01:14;101040.81;;;11.53;98.71
32131;BME280;18639;50.716;7.086;2023-02-16T15:03:52;101050.81;;;11.59;99.07
32131;BME280;18639;50.716;7.086;2023-02-16T15:06:29;101045.16;;;11.52;99.12
32131;BME280;18639;50.716;7.086;2023-02-16T15:09:02;101049.00;;;11.45;98.76
32131;BME280;18639;50.716;7.086;2023-02-16T15:11:32;101022.56;;;11.24;98.58
32131;BME280;18639;50.716;7.086;2023-02-16T15:14:09;101042.59;;;11.36;98.72
32131;BME280;18639;50.716;7.086;2023-02-16T15:16:37;101037.00;;;11.28;98.74
32131;BME280;18639;50.716;7.086;2023-02-16T15:19:09;101033.13;;;11.21;99.86
32131;BME280;18639;50.716;7.086;2023-02-16T15:21:36;101024.69;;;11.02;100.00
32131;BME280;18639;50.716;7.086;2023-02-16T15:24:01;101006.78;;;10.83;100.00
32131;BME280;18639;50.716;7.086;2023-02-16T15:26:30;101013.84;;;10.80;100.00
32131;BME280;18639;50.716;7.086;2023-02-16T15:28:57;101046.03;;;10.90;100.00